الصفحة الرئيسية
METAR-TAF:

METAR-TAF

مطار :

ميسا, أريزونا, الولايات المتحدة

دائرة عرض: 33-19N, خط طول: 111-39W, ارتفاع: 421 متر

مراقبة الطقس الحالي

تاريخ ووقت الإصدار 1ساعة و 3 دقيقة قبل الساعة 11:35UTC
ريح 9 عقدة من الشرق
درجة الحرارة 19°درجة مئوية
الرطوبة 19%
ضغط 1011 hPa
الرؤية: 16.1 كم
سماء صافية

METAR: KIWA 261135Z AUTO 09009KT 10SM CLR 19/M05 A2984 RMK AO2 T01911047

زمن: 05:38 (12:38 UTC)

توقعات

تاريخ ووقت الإصدار 1ساعة و 18 دقيقة قبل الساعة 11:20UTC
التوقعات صالحة من26 الساعة 12 UTC إلى 27 الساعة 12 UTC
ريح 6 عقدة من الشرق/الجنوب الشرقي
الرؤية: 10 كم
سماء صافية
من 26 الساعة 2000 UTC
ريح 7 عقدة من الغرب
الرؤية: 10 كم
سماء صافية
من 27 الساعة 0600 UTC
ريح 5 عقدة من الشرق/الجنوب الشرقي
الرؤية: 10 كم
سماء صافية

TAF: KIWA 261120Z 2612/2712 12006KT P6SM SKC FM262000 27007KT P6SM SKC FM270600 12005KT P6SM SKC

أرصاد الطقس والتوقعات من أكثر من 4000 مطار (تقارير الطقس للمطار METAR والتنبؤ بالطقس بالمطارTAF).

المحطات المتاحة هي النقط الصفراء والحمراء على الخريطة.

حرك المؤشر فوق النقطة لمعرفة اسم المحطة.

ثم انقر لمعرفة أرصاد وتوقعات الطقس.

لتغيير الخارطة: اضغط على الأزرار الخضراء مع رمز الصليب الأسود للتكبير. على الزر الأخضر مع شرطة للتصغير، أو على الأسهم الخضراء للخرائط المجاورة.


METAR-TAF: